Latest Weather Observations for Maitland Airport

IDN60801

Issued at 3:32 pm EST Thursday 28 May 2020 (issued every 10 minutes, with the page automatically refreshed every 10 minutes)

About weather observations | Map of weather stations | Latest weather observations for NSW | Other Formats
Station Details ID: 061428 Name: MAITLAND AIRPORT AWS Lat: -32.70 Lon: 151.49 Height: 27.5 m
Data from the previous 72 hours. | See also: Recent months at Maitland Airport
Date/Time
EST
Temp
°C
App
Temp
°C
Dew
Point
°C
Rel
Hum
%
Delta-T
°C
Wind Press
QNH
hPa
Press
MSL
hPa
Rain since
9am
mm
Dir  Spd
km/h
Gust
km/h
Spd
kts
Gust
kts
28/03:30pm 21.0 19.8 11.6 55 5.2 NW 9 11 5 6 1019.2 1019.2 0.0
28/03:00pm 21.2 20.5 11.5 54 5.4 W 6 11 3 6 1019.2 1019.2 0.0
28/02:30pm 21.1 20.0 12.0 56 5.1 WNW 9 15 5 8 1019.1 1019.1 0.0
28/02:00pm 20.6 18.9 11.2 55 5.2 WNW 11 19 6 10 1019.1 1019.1 0.0
28/01:30pm 20.4 18.9 11.9 58 4.7 WNW 11 15 6 8 1019.2 1019.2 0.0
28/01:00pm 20.3 19.3 13.3 64 4.0 WNW 11 19 6 10 1019.4 1019.4 0.0
28/12:30pm 19.4 17.8 12.9 66 3.7 WNW 13 17 7 9 1019.8 1019.8 0.0
28/12:00pm 18.7 17.3 13.3 71 3.1 W 13 19 7 10 1020.4 1020.4 0.0
28/11:30am 17.7 15.3 12.8 73 2.7 WNW 17 22 9 12 1021.0 1021.0 0.0
28/11:00am 17.1 14.7 12.8 76 2.4 NW 17 24 9 13 1021.4 1021.4 0.0
28/10:30am 16.1 13.4 12.8 81 1.8 WNW 19 24 10 13 1021.7 1021.7 0.0
28/10:00am 14.4 12.3 12.3 87 1.1 WNW 15 22 8 12 1022.1 1022.1 0.0
28/09:30am 13.5 12.3 12.9 96 0.3 WNW 11 15 6 8 1022.3 1022.3 0.0
28/09:00am 12.6 11.7 12.6 100 0.0 WNW 9 13 5 7 1022.1 1022.1 0.0
28/08:47am 11.7 10.5 11.7 100 0.0 WNW 9 13 5 7 1022.0 1022.0 0.0
28/08:30am 11.0 10.2 11.0 100 0.0 ENE 6 9 3 5 1022.0 1022.0 0.0
28/08:11am 10.7 9.8 10.7 100 0.0 NW 6 9 3 5 1021.9 1021.9 0.0
28/08:00am 10.3 9.3 10.3 100 0.0 NW 6 9 3 5 1021.7 1021.7 0.0
28/07:30am 9.5 9.0 9.5 100 0.0 NW 2 7 1 4 1021.5 1021.5 0.0
28/07:00am 9.5 7.7 9.5 100 0.0 NW 9 11 5 6 1021.3 1021.3 0.0
28/06:30am 9.7 8.9 9.7 100 0.0 NW 4 9 2 5 1021.0 1021.0 0.0
28/06:00am 9.4 8.2 9.4 100 0.0 NW 6 11 3 6 1020.6 1020.6 0.0
28/05:30am 9.7 8.9 9.7 100 0.0 NW 4 9 2 5 1020.3 1020.3 0.0
28/05:00am 9.9 9.9 9.9 100 0.0 CALM 0 0 0 0 1020.1 1020.1 0.0
28/04:30am 10.3 9.3 10.3 100 0.0 NW 6 9 3 5 1020.0 1020.0 0.0
28/04:00am 9.9 9.9 9.9 100 0.0 CALM 0 0 0 0 1019.9 1019.9 0.0
28/03:30am 10.4 9.8 10.4 100 0.0 NW 4 7 2 4 1019.8 1019.8 0.0
28/03:00am 10.6 10.1 10.6 100 0.0 NW 4 9 2 5 1019.9 1019.9 0.0
28/02:30am 9.7 9.7 9.7 100 0.0 CALM 0 0 0 0 1020.0 1020.0 0.0
28/02:00am 10.6 9.7 10.6 100 0.0 NW 6 9 3 5 1019.8 1019.8 0.0
28/01:30am 10.3 9.1 10.3 100 0.0 NW 7 9 4 5 1020.0 1020.0 0.0
28/01:28am 10.1 8.8 10.1 100 0.0 NW 7 9 4 5 1020.0 1020.0 0.0
28/01:20am 9.6 8.4 9.6 100 0.0 NW 6 9 3 5 1020.0 1020.0 0.0
28/01:18am 9.6 8.8 9.6 100 0.0 NW 4 9 2 5 1020.0 1020.0 0.0
28/01:00am 9.6 9.5 9.6 100 0.0 CALM 0 0 0 0 1019.9 1019.9 0.0
28/12:30am 9.8 9.8 9.8 100 0.0 CALM 0 0 0 0 1020.1 1020.1 0.0
28/12:05am 10.9 11.2 10.9 100 0.0 CALM 0 0 0 0 1020.2 1020.2 0.0
28/12:00am 10.4 10.6 10.4 100 0.0 CALM 0 0 0 0 1020.3 1020.3 0.0
 
Date/Time
EST
Temp
°C
App
Temp
°C
Dew
Point
°C
Rel
Hum
%
Delta-T
°C
Wind Press
QNH
hPa
Press
MSL
hPa
Rain since
9am
mm
Dir  Spd
km/h
Gust
km/h
Spd
kts
Gust
kts
27/11:33pm 10.3 10.4 10.3 100 0.0 CALM 0 0 0 0 1020.3 1020.3 0.0
27/11:32pm 10.3 10.4 10.3 100 0.0 CALM 0 0 0 0 1020.3 1020.3 0.0
27/11:30pm 10.3 10.4 10.3 100 0.0 CALM 0 0 0 0 1020.3 1020.3 0.0
27/11:19pm 10.5 10.7 10.5 100 0.0 CALM 0 0 0 0 1020.4 1020.4 0.0
27/11:00pm 11.0 11.3 11.0 100 0.0 CALM 0 0 0 0 1020.5 1020.5 0.0
27/10:47pm 11.5 12.0 11.5 100 0.0 CALM 0 0 0 0 1020.5 1020.5 0.0
27/10:43pm 11.8 12.4 11.8 100 0.0 CALM 0 0 0 0 1020.5 1020.5 0.0
27/10:30pm 11.9 12.5 11.9 100 0.0 CALM 0 0 0 0 1020.6 1020.6 0.0
27/10:00pm 11.4 11.8 11.4 100 0.0 CALM 0 0 0 0 1020.5 1020.5 0.0
27/09:56pm 11.5 12.0 11.5 100 0.0 CALM 0 0 0 0 1020.6 1020.6 0.0
27/09:30pm 11.6 11.0 11.6 100 0.0 NW 6 9 3 5 1020.5 1020.5 0.0
27/09:08pm 11.2 11.6 11.2 100 0.0 CALM 0 0 0 0 1020.9 1020.9 0.0
27/09:00pm 11.1 11.5 11.1 100 0.0 CALM 0 0 0 0 1020.9 1020.9 0.0
27/08:30pm 11.9 12.5 11.9 100 0.0 CALM 0 0 0 0 1020.9 1020.9 0.0
27/08:00pm 12.3 13.0 12.1 99 0.1 CALM 0 0 0 0 1020.9 1020.9 0.0
27/07:30pm 13.2 14.1 13.0 99 0.1 CALM 0 0 0 0 1021.1 1021.1 0.0
27/07:00pm 12.9 13.7 12.6 98 0.2 CALM 0 0 0 0 1020.9 1020.9 0.0
27/06:30pm 13.3 14.2 12.8 97 0.3 CALM 0 0 0 0 1020.3 1020.3 0.0
27/06:00pm 13.5 14.3 12.6 94 0.5 CALM 0 0 0 0 1019.8 1019.8 0.0
27/05:30pm 15.3 16.4 13.5 89 1.0 CALM 0 0 0 0 1019.7 1019.7 0.0
27/05:00pm 15.9 15.7 13.0 83 1.6 NW 6 7 3 4 1019.5 1019.5 0.0
27/04:30pm 17.3 16.5 13.0 76 2.4 NW 9 9 5 5 1019.3 1019.3 0.0
27/04:00pm 18.1 17.0 13.2 73 2.8 NW 11 13 6 7 1019.5 1019.5 0.0
27/03:30pm 19.2 20.0 12.5 65 3.8 CALM 0 0 0 0 1019.3 1019.3 0.0
27/03:00pm 19.7 19.5 12.9 65 3.8 NW 6 9 3 5 1019.3 1019.3 0.0
27/02:30pm 18.9 18.1 12.9 68 3.4 WNW 9 13 5 7 1019.6 1019.6 0.0
27/02:00pm 18.8 17.7 13.0 69 3.3 NW 11 17 6 9 1019.8 1019.8 0.0
27/01:30pm 19.7 19.4 14.3 71 3.1 NW 9 15 5 8 1020.1 1020.1 0.0
27/01:00pm 18.4 17.4 13.5 73 2.8 WNW 11 17 6 9 1020.4 1020.4 0.0
27/12:30pm 17.8 16.7 13.1 74 2.6 NW 11 17 6 9 1020.7 1020.7 0.0
27/12:00pm 17.4 16.2 12.9 75 2.5 NW 11 17 6 9 1021.1 1021.1 0.0
27/11:30am 16.8 15.6 12.7 77 2.3 NW 11 17 6 9 1021.4 1021.4 0.0
27/11:00am 16.4 15.0 13.3 82 1.7 NW 13 17 7 9 1021.7 1021.7 0.0
27/10:30am 15.4 14.1 12.5 83 1.6 WNW 11 17 6 9 1022.2 1022.2 0.0
27/10:00am 14.7 13.1 12.7 88 1.1 WNW 13 17 7 9 1022.4 1022.4 0.0
27/09:30am 13.9 12.1 12.1 89 1.0 WNW 13 17 7 9 1022.5 1022.5 0.0
27/09:00am 13.8 11.7 12.4 91 0.8 WNW 15 20 8 11 1022.3 1022.3 0.8
27/08:30am 12.9 11.0 11.8 93 0.6 WNW 13 19 7 10 1022.6 1022.6 0.8
27/08:00am 12.1 10.4 11.3 95 0.4 WNW 11 15 6 8 1022.6 1022.6 0.8
27/07:30am 11.6 9.9 11.1 97 0.3 WNW 11 15 6 8 1022.4 1022.4 0.8
27/07:00am 10.8 8.5 10.5 98 0.2 WNW 13 17 7 9 1022.2 1022.2 0.8
27/06:30am 10.6 8.3 10.4 99 0.1 W 13 19 7 10 1021.9 1021.9 0.8
27/06:00am 10.3 8.7 10.1 99 0.1 W 9 13 5 7 1021.7 1021.7 0.8
27/05:30am 10.5 8.5 10.3 99 0.1 WNW 11 17 6 9 1021.5 1021.5 0.6
27/05:00am 10.9 8.7 10.7 99 0.1 WNW 13 17 7 9 1021.5 1021.5 0.6
27/04:30am 10.5 9.3 10.2 98 0.2 WNW 7 11 4 6 1021.6 1021.6 0.6
27/04:00am 11.1 8.5 10.6 97 0.3 WNW 15 19 8 10 1021.6 1021.6 0.6
27/03:30am 11.6 9.0 10.8 95 0.4 WNW 15 20 8 11 1021.8 1021.8 0.6
27/03:00am 11.7 9.9 10.8 94 0.5 WSW 11 13 6 7 1021.6 1021.6 0.6
27/02:30am 11.9 10.5 11.0 94 0.5 WSW 9 13 5 7 1021.9 1021.9 0.6
27/02:00am 12.0 10.6 10.9 93 0.6 WSW 9 11 5 6 1021.9 1021.9 0.6
27/01:30am 12.4 11.0 11.0 91 0.7 WSW 9 11 5 6 1022.0 1022.0 0.6
27/01:00am 13.3 12.0 11.2 87 1.1 WSW 9 11 5 6 1022.1 1022.1 0.6
27/12:30am 13.6 12.3 11.1 85 1.3 WSW 9 11 5 6 1022.6 1022.6 0.6
27/12:00am 14.2 12.6 11.4 83 1.5 SW 11 17 6 9 1022.4 1022.4 0.6
 
Date/Time
EST
Temp
°C
App
Temp
°C
Dew
Point
°C
Rel
Hum
%
Delta-T
°C
Wind Press
QNH
hPa
Press
MSL
hPa
Rain since
9am
mm
Dir  Spd
km/h
Gust
km/h
Spd
kts
Gust
kts
26/11:30pm 14.4 13.2 11.6 83 1.5 WSW 9 13 5 7 1022.5 1022.5 0.6
26/11:00pm 14.0 12.7 11.3 84 1.4 WSW 9 13 5 7 1022.8 1022.8 0.6
26/10:30pm 13.9 12.6 11.4 85 1.3 WSW 9 13 5 7 1022.5 1022.5 0.6
26/10:00pm 13.9 12.6 11.1 83 1.5 WSW 9 17 5 9 1022.3 1022.3 0.6
26/09:30pm 14.2 12.6 11.5 84 1.4 WSW 11 15 6 8 1022.2 1022.2 0.6
26/09:00pm 13.6 14.0 11.1 85 1.3 CALM 0 0 0 0 1022.3 1022.3 0.6
26/08:30pm 14.6 13.4 11.7 83 1.6 WSW 9 13 5 7 1022.2 1022.2 0.6
26/08:00pm 14.4 13.2 11.7 84 1.4 SW 9 13 5 7 1022.2 1022.2 0.6
26/07:30pm 14.9 13.3 11.5 80 1.8 SW 11 13 6 7 1021.9 1021.9 0.6
26/07:00pm 15.0 13.4 11.6 80 1.8 SSW 11 13 6 7 1021.5 1021.5 0.6
26/06:30pm 15.5 14.8 12.1 80 1.9 SSW 7 9 4 5 1021.4 1021.4 0.6
26/06:00pm 15.7 15.0 11.9 78 2.1 SSW 7 9 4 5 1021.4 1021.4 0.6
26/05:30pm 16.3 14.7 11.5 73 2.6 SSW 11 17 6 9 1021.1 1021.1 0.6
26/05:00pm 17.3 15.0 11.8 70 3.0 SSW 15 20 8 11 1020.9 1020.9 0.6
26/04:30pm 18.2 15.6 12.0 67 3.4 S 17 26 9 14 1020.5 1020.5 0.6
26/04:00pm 17.9 15.6 13.0 73 2.7 SSW 17 24 9 13 1020.3 1020.3 0.6
26/03:30pm 17.8 16.1 13.7 77 2.3 SSW 15 24 8 13 1020.0 1020.0 0.6
26/03:00pm 17.8 15.2 13.3 75 2.5 SSE 19 26 10 14 1019.6 1019.6 0.6
26/02:30pm 17.3 14.2 13.4 78 2.2 S 22 35 12 19 1019.6 1019.6 0.6
26/02:00pm 19.5 16.9 13.2 67 3.6 S 19 26 10 14 1019.4 1019.4 0.6
26/01:30pm 18.1 16.1 15.0 82 1.8 S 19 24 10 13 1019.6 1019.6 0.6
26/01:00pm 17.8 14.5 14.1 79 2.1 S 24 39 13 21 1020.0 1020.0 0.6
26/12:59pm 18.6 15.8 14.3 76 2.5 S 22 39 12 21 1019.9 1019.9 0.4
26/12:30pm 18.7 18.5 15.6 82 1.8 SSW 11 17 6 9 1020.3 1020.3 0.4
26/12:04pm 17.0 15.5 15.3 90 1.0 SSW 17 20 9 11 1020.4 1020.4 0.4
26/12:00pm 17.1 15.9 16.0 93 0.6 SSW 17 24 9 13 1020.5 1020.5 0.4
26/11:51am 16.8 16.1 15.3 91 0.9 SW 13 19 7 10 1020.5 1020.5 0.4
26/11:30am 17.4 15.9 15.2 87 1.3 SW 17 24 9 13 1020.7 1020.7 0.0
26/11:00am 17.6 17.3 15.4 87 1.3 SW 11 17 6 9 1021.0 1021.0 0.0
26/10:30am 16.8 16.4 15.3 91 0.9 W 11 15 6 8 1021.3 1021.3 0.0
26/10:00am 16.1 15.7 15.1 94 0.6 WNW 11 17 6 9 1021.2 1021.2 0.0
26/09:30am 15.7 15.7 15.1 96 0.3 WSW 9 13 5 7 1021.2 1021.2 0.0
26/09:00am 14.8 14.3 13.7 93 0.6 WSW 9 13 5 7 1020.9 1020.9 22.2
26/08:36am 14.2 13.6 13.6 96 0.3 WSW 9 13 5 7 1020.9 1020.9 22.2
26/08:30am 14.1 13.1 13.5 96 0.3 WSW 11 15 6 8 1020.9 1020.9 22.2
26/08:22am 14.0 13.3 13.2 95 0.4 WSW 9 13 5 7 1020.9 1020.9 22.2
26/08:00am 13.8 13.4 13.0 95 0.4 SW 7 11 4 6 1020.6 1020.6 21.6
26/07:30am 13.5 12.6 12.7 95 0.4 WNW 9 15 5 8 1020.6 1020.6 21.6
26/07:00am 12.8 11.8 12.2 96 0.3 WSW 9 11 5 6 1020.6 1020.6 21.6
26/06:30am 12.8 11.7 11.9 94 0.5 WSW 9 13 5 7 1020.3 1020.3 21.6
26/06:00am 12.9 11.8 12.1 95 0.4 WSW 9 11 5 6 1020.1 1020.1 21.6
26/05:30am 12.9 11.5 12.1 95 0.4 SW 11 17 6 9 1019.6 1019.6 21.6
26/05:00am 13.3 11.3 12.8 97 0.3 SW 15 19 8 10 1019.4 1019.4 21.6
26/04:47am 13.3 10.9 12.8 97 0.3 SW 17 26 9 14 1019.2 1019.2 21.6
26/04:30am 13.3 11.2 12.5 95 0.4 WSW 15 20 8 11 1019.1 1019.1 20.8
26/04:00am 13.4 11.4 12.8 96 0.3 SW 15 19 8 10 1019.0 1019.0 20.8
26/03:30am 13.4 11.4 12.8 96 0.3 SW 15 20 8 11 1019.1 1019.1 20.8
26/03:00am 13.5 11.9 12.7 95 0.4 WSW 13 19 7 10 1019.0 1019.0 20.8
26/02:30am 13.5 11.9 12.9 96 0.3 WSW 13 19 7 10 1018.9 1018.9 20.8
26/02:00am 13.4 12.7 13.1 98 0.2 WSW 9 11 5 6 1018.8 1018.8 20.8
26/01:54am 13.4 12.7 13.1 98 0.2 WSW 9 13 5 7 1018.9 1018.9 20.8
26/01:32am 13.5 12.3 12.9 96 0.3 WSW 11 17 6 9 1019.1 1019.1 19.8
26/01:30am 13.5 11.9 12.9 96 0.3 WSW 13 22 7 12 1019.0 1019.0 19.4
26/01:00am 13.6 11.6 12.8 95 0.4 WSW 15 20 8 11 1018.9 1018.9 18.0
26/12:30am 13.7 11.0 12.8 94 0.5 WSW 19 26 10 14 1018.8 1018.8 17.4
26/12:00am 13.7 11.3 12.8 94 0.5 SW 17 24 9 13 1018.7 1018.7 17.0
 
Date/Time
EST
Temp
°C
App
Temp
°C
Dew
Point
°C
Rel
Hum
%
Delta-T
°C
Wind Press
QNH
hPa
Press
MSL
hPa
Rain since
9am
mm
Dir  Spd
km/h
Gust
km/h
Spd
kts
Gust
kts
25/11:30pm 13.6 11.9 12.3 92 0.7 WSW 13 20 7 11 1018.5 1018.5 17.0
25/11:00pm 13.7 11.6 12.4 92 0.7 WSW 15 20 8 11 1018.9 1018.9 17.0
25/10:30pm 13.7 11.6 12.4 92 0.7 WSW 15 24 8 13 1018.7 1018.7 16.4
25/10:00pm 13.5 11.8 12.4 93 0.6 WSW 13 20 7 11 1018.4 1018.4 16.4
25/09:30pm 13.6 12.0 12.7 94 0.5 WSW 13 20 7 11 1018.7 1018.7 16.4
25/09:00pm 13.6 11.6 12.8 95 0.4 WSW 15 22 8 12 1018.4 1018.4 16.0
25/08:30pm 13.5 11.1 12.7 95 0.4 WSW 17 22 9 12 1018.1 1018.1 16.0
25/08:00pm 13.5 11.9 12.9 96 0.3 WSW 13 19 7 10 1018.1 1018.1 15.8
25/07:30pm 13.5 12.6 12.7 95 0.4 WSW 9 17 5 9 1018.0 1018.0 15.2
25/07:00pm 13.6 11.6 12.7 94 0.5 WSW 15 24 8 13 1017.7 1017.7 14.6
25/06:30pm 13.5 11.5 12.7 95 0.4 W 15 20 8 11 1017.4 1017.4 13.4
25/06:00pm 13.4 12.2 12.8 96 0.3 WNW 11 17 6 9 1017.3 1017.3 10.0
25/05:30pm 13.4 11.8 12.9 97 0.3 WNW 13 20 7 11 1017.0 1017.0 9.8
25/05:00pm 13.4 11.5 13.1 98 0.2 WNW 15 19 8 10 1016.7 1016.7 9.8
25/04:30pm 13.4 11.1 13.1 98 0.2 WNW 17 20 9 11 1016.5 1016.5 9.4
25/04:00pm 13.4 11.1 13.1 98 0.2 WNW 17 20 9 11 1016.5 1016.5 8.2

Other formats

Comma delimited format used in spreadsheet applications
http://www.bom.gov.au/fwo/IDN60801/IDN60801.94650.axf

JavaScript Object Notation format (JSON) in row-major order
http://www.bom.gov.au/fwo/IDN60801/IDN60801.94650.json

Data quality

Most of these data are generated automatically and are frequently updated. Quality checks on data are not normally performed. It is possible for incorrect values to appear. Refer to information at About Latest Weather Observations and please check the disclaimer before using these data.